Tuttle, Oklahoma
Current Conditions -  °F | °C
As of 1:35 PM on Wednesday 17 Dec 2014 (Local Time) from KRCE Reporting Station
Light Rain Light Rain  
Wind Chill: 32°   Ceiling: NA
Heat Index: 37°   Visibility: NA
Dew Point: 36°   Wind: 7mph
Humidity: 93%   Direction: 130°SE
Pressure: 30.15"   Gusts: NA
Location:  35.29°N, 97.81°W
Report Text: KRCE 171935Z AUTO 13006KT -RA 03/02 A3015 RMK AO2 LTG DSNT S
Loading
Personal Weather Stations






























Interactive Weather Map New forecast layout! Learn more

10-Day Weather Forecast

Advertisements
Track Severe Weather on mobile